createdAt,value
2023-12-30T00:00:30.052Z,0
2023-12-30T00:02:19.755Z,0
2023-12-30T00:03:19.774Z,0
2023-12-30T00:04:19.382Z,0
2023-12-30T00:05:19.361Z,0
2023-12-30T00:06:19.368Z,0
2023-12-30T00:07:19.341Z,0
2023-12-30T00:08:19.363Z,0
2023-12-30T00:09:19.398Z,0
2023-12-30T00:10:19.880Z,0
2023-12-30T00:11:19.344Z,0
2023-12-30T00:12:19.339Z,0
2023-12-30T00:13:19.385Z,0
2023-12-30T00:14:19.550Z,0
2023-12-30T00:15:19.395Z,0
2023-12-30T00:16:19.417Z,0
2023-12-30T00:17:19.796Z,0
2023-12-30T00:18:22.841Z,0
2023-12-30T00:19:25.887Z,0
2023-12-30T00:20:27.202Z,0
2023-12-30T00:22:19.551Z,0
2023-12-30T00:23:19.374Z,0
2023-12-30T00:24:19.373Z,0
2023-12-30T00:25:19.508Z,0
2023-12-30T00:26:19.344Z,0
2023-12-30T00:27:19.367Z,0
2023-12-30T00:28:19.354Z,0
2023-12-30T00:29:19.361Z,0
2023-12-30T00:30:19.352Z,0
2023-12-30T00:31:19.331Z,0
2023-12-30T00:32:19.353Z,0
2023-12-30T00:33:19.442Z,0
2023-12-30T00:34:19.409Z,0
2023-12-30T00:35:19.381Z,0
2023-12-30T00:36:19.332Z,0
2023-12-30T00:37:19.356Z,0
2023-12-30T00:38:25.661Z,0
2023-12-30T00:40:29.802Z,0
2023-12-30T00:41:25.583Z,0
2023-12-30T00:42:19.444Z,0
2023-12-30T00:43:19.609Z,0
2023-12-30T00:44:19.373Z,0
2023-12-30T00:45:19.334Z,0
2023-12-30T00:46:19.548Z,0
2023-12-30T00:47:19.347Z,0
2023-12-30T00:48:19.347Z,0
2023-12-30T00:49:19.462Z,0
2023-12-30T00:50:19.348Z,0
2023-12-30T00:51:19.345Z,0
2023-12-30T00:52:23.346Z,0
2023-12-30T00:54:19.350Z,0
2023-12-30T00:55:19.363Z,0
2023-12-30T00:56:19.344Z,0
2023-12-30T00:57:19.346Z,0
2023-12-30T00:58:19.339Z,0
2023-12-30T00:59:19.751Z,0
2023-12-30T01:00:22.837Z,0
2023-12-30T01:01:25.911Z,0
2023-12-30T01:02:25.685Z,0
2023-12-30T01:03:19.571Z,0
2023-12-30T01:04:19.724Z,0
2023-12-30T01:05:19.368Z,0
2023-12-30T01:06:19.341Z,0
2023-12-30T01:07:19.578Z,0
2023-12-30T01:08:19.397Z,0
2023-12-30T01:09:19.353Z,0
2023-12-30T01:10:19.389Z,0
2023-12-30T01:11:19.327Z,0
2023-12-30T01:12:19.343Z,0
2023-12-30T01:13:19.355Z,0
2023-12-30T01:14:19.345Z,0
2023-12-30T01:15:19.336Z,0
2023-12-30T01:16:19.348Z,0
2023-12-30T01:17:19.384Z,0
2023-12-30T01:18:19.380Z,0
2023-12-30T01:19:19.371Z,0
2023-12-30T01:20:20.138Z,0
2023-12-30T01:21:22.927Z,0
2023-12-30T01:22:25.973Z,0
2023-12-30T01:23:25.734Z,0
2023-12-30T01:24:19.397Z,0
2023-12-30T01:25:19.540Z,0
2023-12-30T01:26:19.353Z,0
2023-12-30T01:27:19.343Z,0
2023-12-30T01:28:19.425Z,0
2023-12-30T01:29:19.333Z,0
2023-12-30T01:30:19.396Z,0
2023-12-30T01:31:19.496Z,0
2023-12-30T01:32:19.333Z,0
2023-12-30T01:33:19.377Z,0
2023-12-30T01:34:19.392Z,0
2023-12-30T01:35:19.337Z,0
2023-12-30T01:36:19.337Z,0
2023-12-30T01:37:19.374Z,0
2023-12-30T01:38:19.332Z,0
2023-12-30T01:39:19.370Z,0
2023-12-30T01:40:19.335Z,0
2023-12-30T01:41:20.161Z,0
2023-12-30T01:42:23.038Z,0
2023-12-30T01:43:26.462Z,0
2023-12-30T01:44:25.793Z,0
2023-12-30T01:45:19.341Z,0
2023-12-30T01:46:19.420Z,0
2023-12-30T01:47:19.371Z,0
2023-12-30T01:48:19.429Z,0
2023-12-30T01:49:19.527Z,0
2023-12-30T01:50:19.334Z,0
2023-12-30T01:51:28.505Z,0
2023-12-30T01:53:19.376Z,0
2023-12-30T01:54:19.337Z,0
2023-12-30T01:55:19.421Z,0
2023-12-30T01:56:19.334Z,0
2023-12-30T01:57:19.367Z,0
2023-12-30T01:58:19.375Z,0
2023-12-30T01:59:19.341Z,0
2023-12-30T02:00:19.337Z,0
2023-12-30T02:01:19.426Z,0
2023-12-30T02:02:20.180Z,0
2023-12-30T02:03:23.150Z,0
2023-12-30T02:04:26.164Z,0
2023-12-30T02:05:25.920Z,0
2023-12-30T02:06:19.340Z,0
2023-12-30T02:07:19.456Z,0
2023-12-30T02:08:19.341Z,0
2023-12-30T02:09:19.344Z,0
2023-12-30T02:10:19.345Z,0
2023-12-30T02:11:19.410Z,0
2023-12-30T02:12:19.362Z,0
2023-12-30T02:13:19.500Z,0
2023-12-30T02:14:19.332Z,0
2023-12-30T02:15:19.384Z,0
2023-12-30T02:16:19.390Z,0
2023-12-30T02:17:19.366Z,0
2023-12-30T02:18:19.437Z,0
2023-12-30T02:19:19.421Z,0
2023-12-30T02:20:19.363Z,0
2023-12-30T02:21:19.398Z,0
2023-12-30T02:22:19.488Z,0
2023-12-30T02:23:19.347Z,0
2023-12-30T02:24:19.344Z,0
2023-12-30T02:25:20.622Z,0
2023-12-30T02:26:23.682Z,0
2023-12-30T02:27:27.131Z,0
2023-12-30T02:28:26.476Z,0
2023-12-30T02:29:19.537Z,0
2023-12-30T02:30:19.373Z,0
2023-12-30T02:31:19.428Z,0
2023-12-30T02:32:19.367Z,0
2023-12-30T02:33:19.418Z,0
2023-12-30T02:34:19.759Z,0
2023-12-30T02:35:19.331Z,0
2023-12-30T02:36:19.366Z,0
2023-12-30T02:37:19.479Z,0
2023-12-30T02:38:19.352Z,0
2023-12-30T02:39:19.360Z,0
2023-12-30T02:40:19.341Z,0
2023-12-30T02:41:19.346Z,0
2023-12-30T02:42:19.386Z,0
2023-12-30T02:43:19.544Z,0
2023-12-30T02:44:19.356Z,0
2023-12-30T02:45:19.354Z,0
2023-12-30T02:46:20.609Z,0
2023-12-30T02:47:23.953Z,0
2023-12-30T02:48:25.454Z,0
2023-12-30T02:50:19.425Z,0
2023-12-30T02:51:19.436Z,0
2023-12-30T02:52:19.372Z,0
2023-12-30T02:53:19.545Z,0
2023-12-30T02:54:19.458Z,0
2023-12-30T02:55:19.387Z,0
2023-12-30T02:56:19.376Z,0
2023-12-30T02:57:19.424Z,0
2023-12-30T02:58:19.371Z,0
2023-12-30T02:59:19.336Z,0
2023-12-30T03:00:19.672Z,0
2023-12-30T03:01:19.576Z,0
2023-12-30T03:02:19.343Z,0
2023-12-30T03:03:19.446Z,0
2023-12-30T03:04:19.442Z,0
2023-12-30T03:05:19.668Z,0
2023-12-30T03:06:19.410Z,0
2023-12-30T03:07:20.775Z,0
2023-12-30T03:08:23.873Z,0
2023-12-30T03:09:25.477Z,0
2023-12-30T03:10:26.780Z,0
2023-12-30T03:11:19.554Z,0
2023-12-30T03:12:19.344Z,0
2023-12-30T03:13:19.412Z,0
2023-12-30T03:14:19.366Z,0
2023-12-30T03:15:19.548Z,0
2023-12-30T03:16:19.510Z,0
2023-12-30T03:17:19.443Z,0
2023-12-30T03:18:19.680Z,0
2023-12-30T03:19:19.414Z,0
2023-12-30T03:20:19.383Z,0
2023-12-30T03:21:19.445Z,0
2023-12-30T03:22:19.453Z,0
2023-12-30T03:23:19.449Z,0
2023-12-30T03:24:19.338Z,0
2023-12-30T03:25:19.474Z,0
2023-12-30T03:26:19.521Z,0
2023-12-30T03:27:19.417Z,0
2023-12-30T03:28:21.128Z,0
2023-12-30T03:29:23.906Z,0
2023-12-30T03:30:26.361Z,0
2023-12-30T03:32:19.452Z,0
2023-12-30T03:33:19.682Z,0
2023-12-30T03:34:19.475Z,0
2023-12-30T03:35:19.638Z,0
2023-12-30T03:36:19.648Z,0
2023-12-30T03:37:19.598Z,0
2023-12-30T03:38:19.557Z,0
2023-12-30T03:39:19.432Z,0
2023-12-30T03:40:19.627Z,0
2023-12-30T03:41:19.779Z,0
2023-12-30T03:42:19.604Z,0
2023-12-30T03:43:19.587Z,0
2023-12-30T03:44:19.350Z,0
2023-12-30T03:45:19.560Z,0
2023-12-30T03:46:19.543Z,0
2023-12-30T03:47:19.566Z,0
2023-12-30T03:48:19.612Z,0
2023-12-30T03:49:20.980Z,0
2023-12-30T03:50:23.978Z,0
2023-12-30T03:51:26.401Z,0
2023-12-30T03:53:19.590Z,0
2023-12-30T03:54:19.362Z,0
2023-12-30T03:55:19.642Z,0
2023-12-30T03:56:19.752Z,0
2023-12-30T03:57:20.015Z,0
2023-12-30T03:58:19.711Z,0
2023-12-30T03:59:19.363Z,0
2023-12-30T04:00:19.633Z,0
2023-12-30T04:01:19.619Z,0
2023-12-30T04:02:19.640Z,0
2023-12-30T04:03:19.778Z,0
2023-12-30T04:04:19.357Z,0
2023-12-30T04:05:19.603Z,0
2023-12-30T04:06:19.667Z,0
2023-12-30T04:07:19.708Z,0
2023-12-30T04:08:19.344Z,0
2023-12-30T04:09:19.363Z,0
2023-12-30T04:10:21.086Z,0
2023-12-30T04:11:24.223Z,0
2023-12-30T04:12:26.568Z,0
2023-12-30T04:14:19.333Z,0
2023-12-30T04:15:19.356Z,0
2023-12-30T04:16:19.380Z,0
2023-12-30T04:17:19.378Z,0
2023-12-30T04:18:20.128Z,0
2023-12-30T04:19:19.460Z,0
2023-12-30T04:20:19.608Z,0
2023-12-30T04:21:19.750Z,0
2023-12-30T04:22:19.735Z,0
2023-12-30T04:23:19.626Z,0
2023-12-30T04:24:19.664Z,0
2023-12-30T04:25:19.837Z,0
2023-12-30T04:26:19.345Z,0
2023-12-30T04:27:19.361Z,0
2023-12-30T04:28:19.390Z,0
2023-12-30T04:29:19.365Z,0
2023-12-30T04:30:19.480Z,0
2023-12-30T04:31:21.180Z,0
2023-12-30T04:32:24.342Z,0
2023-12-30T04:33:26.687Z,0
2023-12-30T04:35:19.361Z,0
2023-12-30T04:36:19.373Z,0
2023-12-30T04:37:19.378Z,0
2023-12-30T04:38:19.584Z,0
2023-12-30T04:39:19.354Z,0
2023-12-30T04:40:19.428Z,0
2023-12-30T04:41:19.433Z,0
2023-12-30T04:42:19.832Z,0
2023-12-30T04:43:19.639Z,0
2023-12-30T04:44:19.586Z,0
2023-12-30T04:45:19.689Z,0
2023-12-30T04:46:19.350Z,0
2023-12-30T04:47:19.341Z,0
2023-12-30T04:48:19.471Z,0
2023-12-30T04:49:19.572Z,0
2023-12-30T04:50:19.348Z,0
2023-12-30T04:51:19.349Z,0
2023-12-30T04:52:21.899Z,0
2023-12-30T04:53:24.342Z,0
2023-12-30T04:54:26.826Z,0
2023-12-30T04:56:19.446Z,0
2023-12-30T04:57:19.332Z,0
2023-12-30T04:58:19.527Z,0
2023-12-30T04:59:19.617Z,0
2023-12-30T05:00:24.599Z,0
2023-12-30T05:02:19.428Z,0
2023-12-30T05:03:19.648Z,0
2023-12-30T05:04:19.784Z,0
2023-12-30T05:05:19.885Z,0
2023-12-30T05:06:19.667Z,0
2023-12-30T05:07:19.364Z,0
2023-12-30T05:08:19.343Z,0
2023-12-30T05:09:19.869Z,0
2023-12-30T05:10:19.512Z,0
2023-12-30T05:11:19.371Z,0
2023-12-30T05:12:19.349Z,0
2023-12-30T05:13:19.369Z,0
2023-12-30T05:14:19.352Z,0
2023-12-30T05:15:22.046Z,0
2023-12-30T05:16:24.667Z,0
2023-12-30T05:17:25.400Z,0
2023-12-30T05:19:19.448Z,0
2023-12-30T05:20:19.340Z,0
2023-12-30T05:21:19.363Z,0
2023-12-30T05:22:19.546Z,0
2023-12-30T05:23:19.355Z,0
2023-12-30T05:24:19.466Z,0
2023-12-30T05:25:19.624Z,0
2023-12-30T05:26:19.729Z,0
2023-12-30T05:27:19.621Z,0
2023-12-30T05:28:19.861Z,0
2023-12-30T05:29:19.718Z,0
2023-12-30T05:30:19.404Z,0
2023-12-30T05:31:19.397Z,0
2023-12-30T05:32:19.341Z,0
2023-12-30T05:33:19.516Z,0
2023-12-30T05:34:19.412Z,0
2023-12-30T05:35:19.346Z,0
2023-12-30T05:36:22.048Z,0
2023-12-30T05:37:24.727Z,0
2023-12-30T05:38:25.427Z,0
2023-12-30T05:40:19.493Z,0
2023-12-30T05:41:19.362Z,0
2023-12-30T05:42:19.332Z,0
2023-12-30T05:43:19.593Z,0
2023-12-30T05:44:19.330Z,0
2023-12-30T05:45:19.332Z,0
2023-12-30T05:46:19.462Z,0
2023-12-30T05:47:19.417Z,0
2023-12-30T05:48:19.449Z,0
2023-12-30T05:49:19.443Z,0
2023-12-30T05:50:19.337Z,0
2023-12-30T05:51:24.131Z,0
2023-12-30T05:52:19.339Z,0
2023-12-30T05:53:19.349Z,0
2023-12-30T05:54:19.345Z,0
2023-12-30T05:55:19.362Z,0
2023-12-30T05:56:19.358Z,0
2023-12-30T05:57:21.868Z,0
2023-12-30T05:58:24.802Z,0
2023-12-30T05:59:26.297Z,0
2023-12-30T06:01:19.679Z,0
2023-12-30T06:02:19.343Z,0
2023-12-30T06:03:19.338Z,0
2023-12-30T06:04:19.460Z,0
2023-12-30T06:05:19.352Z,0
2023-12-30T06:06:19.454Z,0
2023-12-30T06:07:19.465Z,0
2023-12-30T06:08:19.421Z,0
2023-12-30T06:09:19.334Z,0
2023-12-30T06:10:19.376Z,0
2023-12-30T06:11:19.332Z,0
2023-12-30T06:12:19.348Z,0
2023-12-30T06:13:19.356Z,0
2023-12-30T06:14:19.381Z,0
2023-12-30T06:15:19.332Z,0
2023-12-30T06:16:19.389Z,0
2023-12-30T06:17:19.351Z,0
2023-12-30T06:18:22.249Z,0
2023-12-30T06:19:24.875Z,0
2023-12-30T06:20:26.434Z,0
2023-12-30T06:22:19.380Z,0
2023-12-30T06:23:19.352Z,0
2023-12-30T06:24:19.332Z,0
2023-12-30T06:25:19.495Z,0
2023-12-30T06:26:19.324Z,0
2023-12-30T06:27:19.357Z,0
2023-12-30T06:28:19.575Z,0
2023-12-30T06:29:19.537Z,0
2023-12-30T06:30:19.354Z,0
2023-12-30T06:31:19.354Z,0
2023-12-30T06:32:19.367Z,0
2023-12-30T06:33:19.469Z,0
2023-12-30T06:34:19.362Z,0
2023-12-30T06:35:19.331Z,0
2023-12-30T06:36:19.335Z,0
2023-12-30T06:37:19.416Z,0
2023-12-30T06:38:19.339Z,0
2023-12-30T06:39:22.097Z,0
2023-12-30T06:40:25.076Z,0
2023-12-30T06:41:26.572Z,0
2023-12-30T06:43:19.368Z,0
2023-12-30T06:44:19.337Z,0
2023-12-30T06:45:19.349Z,0
2023-12-30T06:46:19.386Z,0
2023-12-30T06:47:19.340Z,0
2023-12-30T06:48:19.425Z,0
2023-12-30T06:49:19.543Z,0
2023-12-30T06:50:23.437Z,0
2023-12-30T06:52:19.363Z,0
2023-12-30T06:53:19.441Z,0
2023-12-30T06:54:19.328Z,0
2023-12-30T06:57:19.341Z,0
2023-12-30T06:58:19.349Z,0
2023-12-30T06:59:19.329Z,0
2023-12-30T07:00:22.162Z,0
2023-12-30T07:01:25.185Z,0
2023-12-30T07:02:26.657Z,0
2023-12-30T07:04:19.363Z,0
2023-12-30T07:05:19.341Z,0
2023-12-30T07:06:19.354Z,0
2023-12-30T07:07:19.377Z,0
2023-12-30T07:08:19.354Z,0
2023-12-30T07:09:19.334Z,0
2023-12-30T07:10:19.357Z,0
2023-12-30T07:11:19.744Z,0
2023-12-30T07:12:19.336Z,0
2023-12-30T07:13:19.391Z,0
2023-12-30T07:14:19.514Z,0
2023-12-30T07:15:19.464Z,0
2023-12-30T07:16:19.340Z,0
2023-12-30T07:17:19.346Z,0
2023-12-30T07:18:19.443Z,0
2023-12-30T07:19:19.695Z,0
2023-12-30T07:20:19.366Z,0
2023-12-30T07:21:23.758Z,0
2023-12-30T07:22:25.224Z,0
2023-12-30T07:23:26.730Z,0
2023-12-30T07:25:19.388Z,0
2023-12-30T07:26:19.334Z,0
2023-12-30T07:27:19.327Z,0
2023-12-30T07:28:19.429Z,0
2023-12-30T07:29:19.335Z,0
2023-12-30T07:30:19.344Z,0
2023-12-30T07:31:19.368Z,0
2023-12-30T07:32:20.109Z,0
2023-12-30T07:33:19.392Z,0
2023-12-30T07:34:19.519Z,0
2023-12-30T07:35:19.394Z,0
2023-12-30T07:36:19.481Z,0
2023-12-30T07:37:19.373Z,0
2023-12-30T07:38:19.592Z,0
2023-12-30T07:39:19.675Z,0
2023-12-30T07:40:19.736Z,0
2023-12-30T07:41:19.475Z,0
2023-12-30T07:42:24.815Z,0
2023-12-30T07:43:25.364Z,0
2023-12-30T07:44:26.940Z,0
2023-12-30T07:46:19.401Z,0
2023-12-30T07:47:19.361Z,0
2023-12-30T07:48:19.366Z,0
2023-12-30T07:49:19.688Z,0
2023-12-30T07:50:19.338Z,0
2023-12-30T07:51:19.366Z,0
2023-12-30T07:52:19.369Z,0
2023-12-30T07:53:19.666Z,0
2023-12-30T07:54:19.341Z,0
2023-12-30T07:55:19.464Z,0
2023-12-30T07:56:19.737Z,0
2023-12-30T07:57:19.494Z,0
2023-12-30T07:58:19.467Z,0
2023-12-30T07:59:19.591Z,0
2023-12-30T08:00:19.668Z,0
2023-12-30T08:01:19.878Z,0
2023-12-30T08:02:19.762Z,0
2023-12-30T08:03:22.540Z,0
2023-12-30T08:04:25.530Z,0
2023-12-30T08:05:26.931Z,0
2023-12-30T08:07:19.461Z,0
2023-12-30T08:08:19.351Z,0
2023-12-30T08:09:19.346Z,0
2023-12-30T08:10:19.404Z,0
2023-12-30T08:11:19.340Z,0
2023-12-30T08:12:19.329Z,0
2023-12-30T08:13:19.382Z,0
2023-12-30T08:14:19.400Z,0
2023-12-30T08:15:19.335Z,0
2023-12-30T08:16:19.496Z,0
2023-12-30T08:17:19.546Z,0
2023-12-30T08:18:19.410Z,0
2023-12-30T08:19:19.506Z,0
2023-12-30T08:20:19.574Z,0
2023-12-30T08:21:19.641Z,0
2023-12-30T08:22:19.725Z,0
2023-12-30T08:23:19.796Z,0
2023-12-30T08:24:22.574Z,0
2023-12-30T08:25:25.673Z,0
2023-12-30T08:26:26.964Z,0
2023-12-30T08:28:19.527Z,0
2023-12-30T08:29:19.358Z,0
2023-12-30T08:30:19.369Z,0
2023-12-30T08:31:19.416Z,0
2023-12-30T08:32:19.340Z,0
2023-12-30T08:33:19.512Z,0
2023-12-30T08:34:19.715Z,0
2023-12-30T08:35:19.570Z,0
2023-12-30T08:36:19.575Z,0
2023-12-30T08:37:19.565Z,0
2023-12-30T08:38:19.580Z,0
2023-12-30T08:39:19.681Z,0
2023-12-30T08:40:19.765Z,0
2023-12-30T08:41:19.824Z,0
2023-12-30T08:42:19.346Z,0
2023-12-30T08:43:19.419Z,0
2023-12-30T08:44:19.681Z,0
2023-12-30T08:45:22.850Z,0
2023-12-30T08:46:25.945Z,0
2023-12-30T08:47:27.125Z,0
2023-12-30T08:49:19.670Z,0
2023-12-30T08:50:19.343Z,0
2023-12-30T08:51:19.338Z,0
2023-12-30T08:52:19.370Z,0
2023-12-30T08:53:19.358Z,0
2023-12-30T08:54:19.871Z,0
2023-12-30T08:55:19.377Z,0
2023-12-30T08:56:19.344Z,0
2023-12-30T08:57:19.349Z,0
2023-12-30T08:58:19.452Z,0
2023-12-30T08:59:19.359Z,0
2023-12-30T09:00:19.336Z,0
2023-12-30T09:01:19.517Z,0
2023-12-30T09:02:19.348Z,0
2023-12-30T09:03:22.356Z,0
2023-12-30T09:05:19.624Z,0
2023-12-30T09:06:22.787Z,0
2023-12-30T09:07:25.824Z,0
2023-12-30T09:08:25.636Z,0
2023-12-30T09:09:19.748Z,0
2023-12-30T09:10:19.615Z,0
2023-12-30T09:11:19.345Z,0
2023-12-30T09:12:19.356Z,0
2023-12-30T09:13:19.496Z,0
2023-12-30T09:14:19.378Z,0
2023-12-30T09:15:19.348Z,0
2023-12-30T09:16:19.517Z,0
2023-12-30T09:17:19.361Z,0
2023-12-30T09:18:19.405Z,0
2023-12-30T09:19:19.557Z,0
2023-12-30T09:20:19.358Z,0
2023-12-30T09:21:19.364Z,0
2023-12-30T09:22:19.395Z,0
2023-12-30T09:23:19.345Z,0
2023-12-30T09:24:19.459Z,0
2023-12-30T09:25:19.371Z,0
2023-12-30T09:26:19.732Z,0
2023-12-30T09:27:22.855Z,0
2023-12-30T09:28:25.965Z,0
2023-12-30T09:29:25.733Z,0
2023-12-30T09:30:19.472Z,0
2023-12-30T09:31:19.733Z,0
2023-12-30T09:32:19.552Z,0
2023-12-30T09:33:19.409Z,0
2023-12-30T09:34:33.709Z,0
2023-12-30T09:36:19.345Z,0
2023-12-30T09:37:19.376Z,0
2023-12-30T09:38:19.350Z,0
2023-12-30T09:39:19.741Z,0
2023-12-30T09:40:19.425Z,0
2023-12-30T09:41:19.466Z,0
2023-12-30T09:42:19.512Z,0
2023-12-30T09:43:19.379Z,0
2023-12-30T09:44:19.386Z,0
2023-12-30T09:45:19.374Z,0
2023-12-30T09:46:19.391Z,0
2023-12-30T09:47:19.355Z,0
2023-12-30T09:48:20.410Z,0
2023-12-30T09:49:23.528Z,0
2023-12-30T09:50:26.222Z,0
2023-12-30T09:51:25.921Z,0
2023-12-30T09:52:19.375Z,0
2023-12-30T09:53:19.349Z,0
2023-12-30T09:54:19.359Z,0
2023-12-30T09:55:19.415Z,0
2023-12-30T09:56:19.342Z,0
2023-12-30T09:57:19.372Z,0
2023-12-30T09:58:19.372Z,0
2023-12-30T09:59:19.407Z,0
2023-12-30T10:00:19.353Z,0
2023-12-30T10:01:19.392Z,0
2023-12-30T10:02:19.481Z,0
2023-12-30T10:03:19.633Z,0
2023-12-30T10:04:19.397Z,0
2023-12-30T10:05:19.370Z,0
2023-12-30T10:06:19.362Z,0
2023-12-30T10:07:19.384Z,0
2023-12-30T10:08:19.350Z,0
2023-12-30T10:09:20.163Z,0
2023-12-30T10:10:23.540Z,0
2023-12-30T10:11:26.209Z,0
2023-12-30T10:12:26.018Z,0
2023-12-30T10:13:19.384Z,0
2023-12-30T10:14:19.369Z,0
2023-12-30T10:15:19.336Z,0
2023-12-30T10:16:19.346Z,0
2023-12-30T10:17:19.354Z,0
2023-12-30T10:18:19.485Z,0
2023-12-30T10:19:19.415Z,0
2023-12-30T10:20:19.488Z,0
2023-12-30T10:21:19.360Z,0
2023-12-30T10:22:19.395Z,0
2023-12-30T10:23:19.387Z,0
2023-12-30T10:24:19.562Z,0
2023-12-30T10:25:19.401Z,0
2023-12-30T10:26:19.343Z,0
2023-12-30T10:27:19.354Z,0
2023-12-30T10:28:19.375Z,0
2023-12-30T10:29:19.366Z,0
2023-12-30T10:30:20.307Z,0
2023-12-30T10:31:23.343Z,0
2023-12-30T10:32:26.909Z,0
2023-12-30T10:33:26.129Z,0
2023-12-30T10:34:19.414Z,0
2023-12-30T10:35:21.040Z,0
2023-12-30T10:36:19.354Z,0
2023-12-30T10:37:19.445Z,0
2023-12-30T10:38:19.364Z,0
2023-12-30T10:39:19.358Z,0
2023-12-30T10:40:19.383Z,0
2023-12-30T10:41:19.359Z,0
2023-12-30T10:42:19.350Z,0
2023-12-30T10:43:19.362Z,0
2023-12-30T10:44:19.497Z,0
2023-12-30T10:45:19.746Z,0
2023-12-30T10:46:19.395Z,0
2023-12-30T10:47:19.345Z,0
2023-12-30T10:48:19.453Z,0
2023-12-30T10:49:19.419Z,0
2023-12-30T10:50:19.550Z,0
2023-12-30T10:51:20.297Z,0
2023-12-30T10:52:23.564Z,0
2023-12-30T10:53:26.472Z,0
2023-12-30T10:54:26.198Z,0
2023-12-30T10:55:19.545Z,0
2023-12-30T10:56:19.337Z,0
2023-12-30T10:57:19.328Z,0
2023-12-30T10:58:19.474Z,0
2023-12-30T10:59:19.383Z,0
2023-12-30T11:00:19.476Z,0
2023-12-30T11:01:19.600Z,0
2023-12-30T11:02:19.753Z,0
2023-12-30T11:03:19.351Z,0
2023-12-30T11:04:19.453Z,0
2023-12-30T11:05:19.508Z,0
2023-12-30T11:06:19.836Z,0
2023-12-30T11:07:19.376Z,0
2023-12-30T11:08:19.724Z,0
2023-12-30T11:09:19.906Z,0
2023-12-30T11:10:19.358Z,0
2023-12-30T11:11:19.389Z,0
2023-12-30T11:12:20.514Z,0
2023-12-30T11:13:23.569Z,0
2023-12-30T11:14:26.518Z,0
2023-12-30T11:15:26.315Z,0
2023-12-30T11:16:19.612Z,0
2023-12-30T11:17:19.437Z,0
2023-12-30T11:18:19.805Z,0
2023-12-30T11:19:19.390Z,0
2023-12-30T11:20:19.337Z,0
2023-12-30T11:21:19.341Z,0
2023-12-30T11:22:19.354Z,0
2023-12-30T11:23:19.348Z,0
2023-12-30T11:24:19.479Z,0
2023-12-30T11:25:19.360Z,0
2023-12-30T11:26:19.344Z,0
2023-12-30T11:27:19.334Z,0
2023-12-30T11:28:19.684Z,0
2023-12-30T11:29:19.387Z,0
2023-12-30T11:30:19.425Z,0
2023-12-30T11:31:19.376Z,0
2023-12-30T11:32:19.402Z,0
2023-12-30T11:33:20.525Z,0
2023-12-30T11:34:23.682Z,0
2023-12-30T11:35:26.567Z,0
2023-12-30T11:36:26.349Z,0
2023-12-30T11:37:19.516Z,0
2023-12-30T11:38:19.420Z,0
2023-12-30T11:39:19.356Z,0
2023-12-30T11:40:19.387Z,0
2023-12-30T11:41:19.382Z,0
2023-12-30T11:42:19.355Z,0
2023-12-30T11:43:19.387Z,0
2023-12-30T11:44:19.345Z,0
2023-12-30T11:45:19.346Z,0
2023-12-30T11:46:19.408Z,0
2023-12-30T11:47:19.341Z,0
2023-12-30T11:48:19.391Z,0
2023-12-30T11:49:19.402Z,0
2023-12-30T11:50:19.350Z,0
2023-12-30T11:51:19.537Z,0
2023-12-30T11:52:19.357Z,0
2023-12-30T11:53:19.345Z,0
2023-12-30T11:54:20.755Z,0
2023-12-30T11:55:23.757Z,0
2023-12-30T11:56:27.234Z,0
2023-12-30T11:57:26.438Z,0
2023-12-30T11:58:19.597Z,0
2023-12-30T11:59:19.845Z,0
2023-12-30T12:00:19.340Z,0
2023-12-30T12:01:19.440Z,0
2023-12-30T12:02:19.847Z,0
2023-12-30T12:03:19.348Z,0
2023-12-30T12:04:19.380Z,0
2023-12-30T12:05:19.641Z,0
2023-12-30T12:06:19.403Z,0
2023-12-30T12:07:19.354Z,0
2023-12-30T12:08:19.454Z,0
2023-12-30T12:09:19.459Z,0
2023-12-30T12:10:19.434Z,0
2023-12-30T12:11:19.356Z,0
2023-12-30T12:12:19.340Z,0
2023-12-30T12:13:19.345Z,0
2023-12-30T12:14:19.358Z,0
2023-12-30T12:15:20.641Z,0
2023-12-30T12:16:23.821Z,0
2023-12-30T12:17:25.775Z,0
2023-12-30T12:19:19.449Z,0
2023-12-30T12:20:23.488Z,0
2023-12-30T12:22:19.471Z,0
2023-12-30T12:23:19.465Z,0
2023-12-30T12:24:19.343Z,0
2023-12-30T12:25:19.412Z,0
2023-12-30T12:26:19.349Z,0
2023-12-30T12:27:19.385Z,0
2023-12-30T12:28:19.352Z,0
2023-12-30T12:29:19.338Z,0
2023-12-30T12:30:19.448Z,0
2023-12-30T12:31:19.357Z,0
2023-12-30T12:32:19.350Z,0
2023-12-30T12:33:19.431Z,0
2023-12-30T12:34:19.369Z,0
2023-12-30T12:35:19.338Z,0
2023-12-30T12:36:20.727Z,0
2023-12-30T12:37:23.877Z,0
2023-12-30T12:38:26.285Z,0
2023-12-30T12:40:19.510Z,0
2023-12-30T12:41:19.365Z,0
2023-12-30T12:44:19.573Z,0
2023-12-30T12:45:19.345Z,0
2023-12-30T12:46:19.369Z,0
2023-12-30T12:47:19.417Z,0
2023-12-30T12:48:19.384Z,0
2023-12-30T12:49:19.463Z,0
2023-12-30T12:50:19.340Z,0
2023-12-30T12:51:19.344Z,0
2023-12-30T12:52:19.413Z,0
2023-12-30T12:53:19.345Z,0
2023-12-30T12:54:19.335Z,0
2023-12-30T12:55:19.355Z,0
2023-12-30T12:56:19.343Z,0
2023-12-30T12:57:20.954Z,0
2023-12-30T12:58:24.008Z,0
2023-12-30T12:59:26.429Z,0
2023-12-30T13:01:19.474Z,0
2023-12-30T13:02:19.390Z,0
2023-12-30T13:03:19.407Z,0
2023-12-30T13:04:19.466Z,0
2023-12-30T13:05:19.547Z,0
2023-12-30T13:06:19.374Z,0
2023-12-30T13:07:19.386Z,0
2023-12-30T13:08:19.442Z,0
2023-12-30T13:09:19.376Z,0
2023-12-30T13:10:19.380Z,0
2023-12-30T13:11:19.327Z,0
2023-12-30T13:12:19.329Z,0
2023-12-30T13:13:19.521Z,0
2023-12-30T13:14:19.336Z,0
2023-12-30T13:15:19.337Z,0
2023-12-30T13:16:19.374Z,0
2023-12-30T13:17:19.353Z,0
2023-12-30T13:18:21.109Z,0
2023-12-30T13:19:24.139Z,0
2023-12-30T13:20:26.493Z,0
2023-12-30T13:22:19.421Z,0
2023-12-30T13:23:19.334Z,0
2023-12-30T13:24:19.361Z,0
2023-12-30T13:25:19.397Z,0
2023-12-30T13:26:20.025Z,0
2023-12-30T13:27:19.358Z,0
2023-12-30T13:28:19.389Z,0
2023-12-30T13:29:19.364Z,0
2023-12-30T13:30:19.379Z,0
2023-12-30T13:31:19.655Z,0
2023-12-30T13:32:19.371Z,0
2023-12-30T13:33:19.397Z,0
2023-12-30T13:34:19.471Z,0
2023-12-30T13:35:19.517Z,0
2023-12-30T13:36:19.360Z,0
2023-12-30T13:37:19.380Z,0
2023-12-30T13:38:19.332Z,0
2023-12-30T13:39:21.593Z,0
2023-12-30T13:40:24.101Z,0
2023-12-30T13:41:26.591Z,0
2023-12-30T13:43:19.335Z,0
2023-12-30T13:44:19.345Z,1002.34
2023-12-30T13:45:19.401Z,1002.32
2023-12-30T13:46:19.409Z,1002.33
2023-12-30T13:47:19.362Z,1002.28
2023-12-30T13:48:19.385Z,1002.33
2023-12-30T13:49:19.452Z,1002.29
2023-12-30T13:50:19.489Z,1002.32
2023-12-30T13:51:19.359Z,1002.21
2023-12-30T13:52:19.349Z,1002.26
2023-12-30T13:53:19.340Z,1002.29
2023-12-30T13:54:19.322Z,1002.27
2023-12-30T13:55:19.405Z,1002.29
2023-12-30T13:56:25.403Z,1002.3
2023-12-30T13:58:19.389Z,1002.3
2023-12-30T13:59:19.337Z,1002.26
2023-12-30T14:00:21.276Z,1002.24
2023-12-30T14:01:24.348Z,1002.24
2023-12-30T14:02:26.781Z,1002.26
2023-12-30T14:04:19.364Z,1002.18
2023-12-30T14:05:19.534Z,1002.22
2023-12-30T14:06:19.507Z,1002.22
2023-12-30T14:07:19.509Z,1002.18
2023-12-30T14:08:19.358Z,1002.15
2023-12-30T14:09:19.320Z,1002.16
2023-12-30T14:10:19.605Z,1002.11
2023-12-30T14:11:19.536Z,1002.1
2023-12-30T14:12:19.339Z,1002.05
2023-12-30T14:13:19.418Z,1002.03
2023-12-30T14:14:19.422Z,1002
2023-12-30T14:15:19.866Z,1002.03
2023-12-30T14:16:19.372Z,1002.03
2023-12-30T14:17:19.570Z,1002.02
2023-12-30T14:18:19.580Z,1001.98
2023-12-30T14:19:19.690Z,1001.93
2023-12-30T14:20:19.545Z,1001.93
2023-12-30T14:21:21.739Z,1001.98
2023-12-30T14:22:24.199Z,1001.89
2023-12-30T14:23:26.719Z,1001.89
2023-12-30T14:25:19.951Z,1001.93
2023-12-30T14:26:19.686Z,1001.87
2023-12-30T14:27:19.659Z,1001.94
2023-12-30T14:28:19.832Z,1001.85
2023-12-30T14:29:19.435Z,1001.84
2023-12-30T14:30:19.416Z,1001.84
2023-12-30T14:31:19.409Z,1001.87
2023-12-30T14:32:19.387Z,1001.82
2023-12-30T14:33:19.478Z,1001.83
2023-12-30T14:34:19.426Z,1001.82
2023-12-30T14:35:19.542Z,1001.85
2023-12-30T14:36:19.364Z,1001.85
2023-12-30T14:37:19.423Z,1001.85
2023-12-30T14:38:19.344Z,1001.92
2023-12-30T14:39:19.348Z,1001.81
2023-12-30T14:40:19.507Z,1001.88
2023-12-30T14:41:19.426Z,1001.82
2023-12-30T14:42:19.340Z,1001.85
2023-12-30T14:43:19.699Z,1001.84
2023-12-30T14:44:22.780Z,1001.83
2023-12-30T14:45:25.652Z,1001.82
2023-12-30T14:46:27.155Z,1001.8
2023-12-30T14:48:19.589Z,1001.8
2023-12-30T14:49:19.401Z,1001.82
2023-12-30T14:50:19.399Z,1001.8
2023-12-30T14:51:19.459Z,1001.81
2023-12-30T14:52:19.512Z,1001.79
2023-12-30T14:53:19.414Z,1001.81
2023-12-30T14:54:19.504Z,1001.84
2023-12-30T14:55:19.672Z,1001.82
2023-12-30T14:56:22.544Z,1001.87
2023-12-30T14:57:19.523Z,1001.9
2023-12-30T14:58:19.564Z,1001.9
2023-12-30T14:59:19.629Z,1001.91
2023-12-30T15:00:19.718Z,1001.91
2023-12-30T15:01:19.729Z,1001.92
2023-12-30T15:02:19.549Z,1001.92
2023-12-30T15:03:19.653Z,1001.91
2023-12-30T15:04:20.083Z,1001.94
2023-12-30T15:05:23.281Z,1001.87
2023-12-30T15:06:27.330Z,1001.85
2023-12-30T15:07:25.514Z,1001.89
2023-12-30T15:08:19.796Z,1001.87
2023-12-30T15:09:19.674Z,1001.86